Time;durP1;ratioP1;P1;durP2;ratioP2;P2;SDS_P1;SDS_P2;PMS_P1;PMS_P2;Temp;Humidity;BMP_temperature;BMP_pressure;BME280_temperature;BME280_humidity;BME280_pressure;Samples;Min_cycle;Max_cycle;Signal;HPM_P1;HPM_P2
2022/04/13 00:01:03;;;;;;;8.20;4.32;;;14.70;99.90;;;;;;5077495;28;20032;-39
2022/04/13 00:03:28;;;;;;;12.65;5.60;;;14.60;99.90;;;;;;5093613;28;20058;-37
2022/04/13 00:05:55;;;;;;;6.75;4.15;;;14.60;99.90;;;;;;5094718;28;20099;-37
2022/04/13 00:08:21;;;;;;;7.65;4.13;;;14.50;99.90;;;;;;5095205;28;20031;-38
2022/04/13 00:10:47;;;;;;;8.63;4.47;;;14.40;99.90;;;;;;5093670;28;20034;-39
2022/04/13 00:13:13;;;;;;;7.72;4.53;;;14.40;99.90;;;;;;5091200;28;20043;-39
2022/04/13 00:15:40;;;;;;;10.82;4.32;;;14.40;99.90;;;;;;5093624;28;20023;-38
2022/04/13 00:18:07;;;;;;;5.70;4.05;;;14.30;99.90;;;;;;5091245;28;20450;-38
2022/04/13 00:20:33;;;;;;;10.88;4.80;;;14.30;99.90;;;;;;5092713;28;20028;-39
2022/04/13 00:22:59;;;;;;;10.05;4.40;;;14.30;99.90;;;;;;5094385;28;20043;-37
2022/04/13 00:25:24;;;;;;;7.40;4.60;;;14.30;99.90;;;;;;5092856;28;20028;-40
2022/04/13 00:27:50;;;;;;;6.43;4.15;;;14.20;99.90;;;;;;5093618;28;20476;-38
2022/04/13 00:30:15;;;;;;;15.23;5.40;;;14.20;99.90;;;;;;5092276;28;20031;-40
2022/04/13 00:32:41;;;;;;;7.35;4.18;;;14.10;99.90;;;;;;5090970;28;20085;-39
2022/04/13 00:35:07;;;;;;;9.20;4.82;;;14.10;99.90;;;;;;5090287;28;20059;-41
2022/04/13 00:37:33;;;;;;;10.23;4.45;;;14.10;99.90;;;;;;5092599;28;20028;-37
2022/04/13 00:39:59;;;;;;;9.40;4.38;;;14.10;99.90;;;;;;5092420;28;20499;-40
2022/04/13 00:42:24;;;;;;;9.85;3.70;;;14.00;99.90;;;;;;5093360;28;20055;-40
2022/04/13 00:44:50;;;;;;;10.05;4.72;;;14.00;99.90;;;;;;5092194;28;20509;-38
2022/04/13 00:47:18;;;;;;;9.57;5.20;;;14.00;99.90;;;;;;5092856;28;20501;-39
2022/04/13 00:49:44;;;;;;;14.05;4.70;;;14.00;99.90;;;;;;5091590;28;20525;-40
2022/04/13 00:52:12;;;;;;;8.50;3.97;;;14.00;99.90;;;;;;5091367;28;20024;-39
2022/04/13 00:54:43;;;;;;;15.55;5.00;;;14.00;99.90;;;;;;5092861;28;20148;-37
2022/04/13 00:57:15;;;;;;;11.93;5.07;;;14.00;99.90;;;;;;5073730;28;20078;-39
2022/04/13 00:59:41;;;;;;;10.77;4.85;;;14.00;99.90;;;;;;5085755;28;20028;-39
2022/04/13 01:02:08;;;;;;;13.67;5.10;;;14.00;99.90;;;;;;5090665;28;20490;-39
2022/04/13 01:04:35;;;;;;;8.02;4.70;;;14.00;99.90;;;;;;5092924;28;20051;-38
2022/04/13 01:07:07;;;;;;;9.43;6.13;;;14.00;99.90;;;;;;5092074;28;20031;-36
2022/04/13 01:09:34;;;;;;;11.07;5.32;;;14.00;99.90;;;;;;5091415;28;20047;-39
2022/04/13 01:11:59;;;;;;;16.08;5.53;;;14.00;99.90;;;;;;5092368;28;20533;-39
2022/04/13 01:14:25;;;;;;;15.70;5.55;;;14.00;99.90;;;;;;5093719;28;20028;-39
2022/04/13 01:16:51;;;;;;;8.98;5.25;;;14.00;99.90;;;;;;5091120;28;20032;-37
2022/04/13 01:19:17;;;;;;;11.75;5.43;;;14.00;99.90;;;;;;5091099;28;20103;-38
2022/04/13 01:21:45;;;;;;;8.57;6.03;;;13.90;99.90;;;;;;5092781;28;20111;-38
2022/04/13 01:24:11;;;;;;;9.52;5.45;;;13.90;99.90;;;;;;5092216;28;20012;-38
2022/04/13 01:26:37;;;;;;;13.52;5.18;;;13.90;99.90;;;;;;5085192;28;20029;-39
2022/04/13 01:29:03;;;;;;;10.30;5.00;;;13.90;99.90;;;;;;5090973;28;20032;-40
2022/04/13 01:31:29;;;;;;;6.75;4.28;;;13.90;99.90;;;;;;5091801;28;20114;-47
2022/04/13 01:33:56;;;;;;;18.10;5.55;;;13.90;99.90;;;;;;5092118;28;20462;-38
2022/04/13 01:36:22;;;;;;;11.52;4.57;;;13.90;99.90;;;;;;5093727;28;20031;-38
2022/04/13 01:38:47;;;;;;;17.27;5.47;;;13.90;99.90;;;;;;5092659;28;20084;-40
2022/04/13 01:41:13;;;;;;;12.05;5.05;;;13.90;99.90;;;;;;5092491;28;20032;-39
2022/04/13 01:43:38;;;;;;;11.10;5.95;;;14.00;99.90;;;;;;5090618;28;20032;-39
2022/04/13 01:46:04;;;;;;;8.95;5.35;;;14.00;99.90;;;;;;5093085;28;20036;-38
2022/04/13 01:48:31;;;;;;;9.57;5.10;;;14.00;99.90;;;;;;5090832;28;20027;-38
2022/04/13 01:51:00;;;;;;;12.50;5.30;;;14.00;99.90;;;;;;5092774;28;20471;-38
2022/04/13 01:53:27;;;;;;;8.68;5.22;;;14.00;99.90;;;;;;5093038;28;20108;-39
2022/04/13 01:55:57;;;;;;;8.35;5.00;;;14.00;99.90;;;;;;5090484;28;20031;-37
2022/04/13 01:58:23;;;;;;;9.38;5.40;;;14.00;99.90;;;;;;5091197;28;20063;-37
2022/04/13 02:00:53;;;;;;;8.25;5.55;;;14.00;99.90;;;;;;5091028;28;20096;-39
2022/04/13 02:03:20;;;;;;;10.55;4.68;;;14.00;99.90;;;;;;5091939;28;20479;-37
2022/04/13 02:05:46;;;;;;;10.53;5.40;;;13.90;99.90;;;;;;5099490;28;20073;-38
2022/04/13 02:08:12;;;;;;;11.75;4.70;;;13.90;99.90;;;;;;5092368;28;20827;-38
2022/04/13 02:10:37;;;;;;;13.20;5.47;;;14.00;99.90;;;;;;5092355;28;20035;-38
2022/04/13 02:13:03;;;;;;;13.98;5.15;;;14.00;99.90;;;;;;5093117;28;20055;-38
2022/04/13 02:15:29;;;;;;;9.20;5.18;;;14.00;99.90;;;;;;5102533;28;20143;-39
2022/04/13 02:17:55;;;;;;;8.05;5.00;;;14.00;99.90;;;;;;5092739;28;20032;-39
2022/04/13 02:20:20;;;;;;;9.23;5.03;;;14.00;99.90;;;;;;5089677;28;20031;-39
2022/04/13 02:22:46;;;;;;;14.68;5.38;;;14.00;99.90;;;;;;5092487;28;20391;-37
2022/04/13 02:25:12;;;;;;;8.98;5.25;;;14.00;99.90;;;;;;5091140;28;20016;-40
2022/04/13 02:27:38;;;;;;;9.00;5.25;;;14.00;99.90;;;;;;5094810;28;20648;-39
2022/04/13 02:30:04;;;;;;;11.90;5.85;;;13.90;99.90;;;;;;5094878;28;20535;-38
2022/04/13 02:32:30;;;;;;;7.63;5.40;;;13.90;99.90;;;;;;5076635;28;20027;-39
2022/04/13 02:34:55;;;;;;;8.77;4.85;;;14.00;99.90;;;;;;5091272;28;20040;-42
2022/04/13 02:37:21;;;;;;;13.18;5.22;;;14.00;99.90;;;;;;5095134;28;20028;-36
2022/04/13 02:39:47;;;;;;;12.60;5.65;;;13.90;99.90;;;;;;5094669;28;20039;-36
2022/04/13 02:42:14;;;;;;;8.68;5.15;;;13.90;99.90;;;;;;5094395;28;20107;-39
2022/04/13 02:44:43;;;;;;;8.98;4.90;;;13.90;99.90;;;;;;5096972;28;20021;-39
2022/04/13 02:47:12;;;;;;;13.63;5.90;;;13.90;99.90;;;;;;5096679;28;20048;-38
2022/04/13 02:49:38;;;;;;;10.43;6.07;;;13.80;99.90;;;;;;5095558;28;20081;-39
2022/04/13 02:52:06;;;;;;;10.55;6.18;;;13.80;99.90;;;;;;5094941;28;20028;-37
2022/04/13 02:54:32;;;;;;;13.73;7.07;;;13.80;99.90;;;;;;5095808;28;20538;-38
2022/04/13 02:56:58;;;;;;;16.17;6.65;;;13.80;99.90;;;;;;5095011;28;20111;-38
2022/04/13 02:59:23;;;;;;;16.73;6.78;;;13.70;99.90;;;;;;5094643;28;20120;-38
2022/04/13 03:01:49;;;;;;;10.75;6.10;;;13.70;99.90;;;;;;5093232;28;20031;-46
2022/04/13 03:04:16;;;;;;;13.65;7.18;;;13.70;99.90;;;;;;5096218;28;20110;-38
2022/04/13 03:06:42;;;;;;;10.40;6.72;;;13.70;99.90;;;;;;5095573;28;20081;-38
2022/04/13 03:09:08;;;;;;;25.63;8.00;;;13.60;99.90;;;;;;5094178;28;20028;-38
2022/04/13 03:11:33;;;;;;;11.07;7.70;;;13.60;99.90;;;;;;5094520;28;20476;-38
2022/04/13 03:13:59;;;;;;;15.18;6.43;;;13.60;99.90;;;;;;5096079;28;20060;-37
2022/04/13 03:16:25;;;;;;;14.88;7.30;;;13.50;99.90;;;;;;5096077;28;20035;-39
2022/04/13 03:18:50;;;;;;;13.60;6.00;;;13.50;99.90;;;;;;5094597;28;20063;-38
2022/04/13 03:21:16;;;;;;;9.27;6.45;;;13.50;99.90;;;;;;5094723;28;20099;-38
2022/04/13 03:23:41;;;;;;;11.43;7.00;;;13.50;99.90;;;;;;5095525;28;20040;-39
2022/04/13 03:26:07;;;;;;;11.38;5.82;;;13.50;99.90;;;;;;5096148;28;20107;-39
2022/04/13 03:28:33;;;;;;;9.18;5.43;;;13.50;99.90;;;;;;5094196;28;20012;-40
2022/04/13 03:30:59;;;;;;;14.48;5.80;;;13.50;99.90;;;;;;5095014;28;20035;-39
2022/04/13 03:33:25;;;;;;;9.20;5.90;;;13.40;99.90;;;;;;5094588;28;20420;-37
2022/04/13 03:35:50;;;;;;;13.32;5.97;;;13.50;99.90;;;;;;5094466;28;20031;-37
2022/04/13 03:38:17;;;;;;;10.45;6.20;;;13.40;99.90;;;;;;5093607;28;20031;-39
2022/04/13 03:40:42;;;;;;;9.45;6.40;;;13.50;99.90;;;;;;5095660;28;20032;-39
2022/04/13 03:43:08;;;;;;;13.48;6.22;;;13.40;99.90;;;;;;5094426;28;20032;-33
2022/04/13 03:45:33;;;;;;;16.30;6.47;;;13.40;99.90;;;;;;5093824;28;20472;-37
2022/04/13 03:47:59;;;;;;;15.70;5.55;;;13.50;99.90;;;;;;5092031;28;20056;-39
2022/04/13 03:50:25;;;;;;;17.15;7.38;;;13.50;99.90;;;;;;5094000;28;20039;-40
2022/04/13 03:52:50;;;;;;;9.27;6.10;;;13.50;99.90;;;;;;5094403;28;20111;-39
2022/04/13 03:55:19;;;;;;;11.40;5.63;;;13.50;99.90;;;;;;5088830;28;20480;-38
2022/04/13 03:57:44;;;;;;;9.55;5.85;;;13.50;99.90;;;;;;5082575;28;20054;-37
2022/04/13 04:00:10;;;;;;;11.23;5.53;;;13.50;99.90;;;;;;5095164;28;20031;-38
2022/04/13 04:02:37;;;;;;;16.90;6.22;;;13.50;99.90;;;;;;5083934;28;20350;-39
2022/04/13 04:05:03;;;;;;;8.13;5.95;;;13.50;99.90;;;;;;5080998;28;20100;-38
2022/04/13 04:07:29;;;;;;;8.77;5.40;;;13.50;99.90;;;;;;5093359;28;20054;-38
2022/04/13 04:09:55;;;;;;;12.60;6.10;;;13.50;99.90;;;;;;5093573;28;20040;-36
2022/04/13 04:12:20;;;;;;;17.85;6.22;;;13.60;99.90;;;;;;5094121;28;20161;-37
2022/04/13 04:14:46;;;;;;;12.45;5.68;;;13.60;99.90;;;;;;5091047;28;20035;-38
2022/04/13 04:17:12;;;;;;;14.30;6.40;;;13.60;99.90;;;;;;5094045;28;20024;-38
2022/04/13 04:19:37;;;;;;;8.07;5.30;;;13.50;99.90;;;;;;5091355;28;20058;-38
2022/04/13 04:22:03;;;;;;;12.77;5.75;;;13.60;99.90;;;;;;5093027;28;20028;-38
2022/04/13 04:24:29;;;;;;;14.70;6.72;;;13.60;99.90;;;;;;5079899;28;20435;-42
2022/04/13 04:26:55;;;;;;;14.80;6.47;;;13.60;99.90;;;;;;5074471;28;20039;-38
2022/04/13 04:29:22;;;;;;;11.90;6.18;;;13.50;99.90;;;;;;5082849;28;20486;-38
2022/04/13 04:31:50;;;;;;;10.98;6.75;;;13.60;99.90;;;;;;5093258;28;20051;-37
2022/04/13 04:34:18;;;;;;;20.30;7.35;;;13.60;99.90;;;;;;5092885;28;20107;-38
2022/04/13 04:36:44;;;;;;;14.15;7.20;;;13.60;99.90;;;;;;5094444;28;20034;-39
2022/04/13 04:39:10;;;;;;;13.55;6.55;;;13.60;99.90;;;;;;5093452;28;20043;-38
2022/04/13 04:41:36;;;;;;;9.82;6.30;;;13.60;99.90;;;;;;5093987;28;20085;-37
2022/04/13 04:44:01;;;;;;;17.02;6.60;;;13.60;99.90;;;;;;5083215;28;20078;-37
2022/04/13 04:46:27;;;;;;;12.23;6.90;;;13.60;99.90;;;;;;5079380;28;20032;-37
2022/04/13 04:48:53;;;;;;;10.20;6.32;;;13.70;99.90;;;;;;5092726;28;20035;-38
2022/04/13 04:51:19;;;;;;;17.35;7.82;;;13.60;99.90;;;;;;5092919;28;20122;-37
2022/04/13 04:53:47;;;;;;;16.90;7.32;;;13.60;99.90;;;;;;5093536;28;20063;-37
2022/04/13 04:56:13;;;;;;;14.90;7.53;;;13.60;99.90;;;;;;5092409;28;20027;-36
2022/04/13 04:58:39;;;;;;;12.30;6.53;;;13.50;99.90;;;;;;5093339;28;20028;-37
2022/04/13 05:01:04;;;;;;;11.05;6.38;;;13.50;99.90;;;;;;5092856;28;20032;-37
2022/04/13 05:03:31;;;;;;;12.68;7.47;;;13.50;99.90;;;;;;5092945;28;20020;-38
2022/04/13 05:05:56;;;;;;;18.23;8.35;;;13.50;99.90;;;;;;5094136;28;20095;-37
2022/04/13 05:08:22;;;;;;;19.08;7.25;;;13.60;99.90;;;;;;5092458;28;20142;-45
2022/04/13 05:10:51;;;;;;;22.08;8.52;;;13.50;99.90;;;;;;5091709;28;20033;-37
2022/04/13 05:13:20;;;;;;;13.63;7.18;;;13.60;99.90;;;;;;5093127;28;20485;-39
2022/04/13 05:15:46;;;;;;;12.50;7.72;;;13.60;99.90;;;;;;5093508;28;20032;-39
2022/04/13 05:18:13;;;;;;;15.82;8.40;;;13.60;99.90;;;;;;5093616;28;20033;-38
2022/04/13 05:20:41;;;;;;;17.55;7.55;;;13.60;99.90;;;;;;5091723;28;20031;-36
2022/04/13 05:23:07;;;;;;;11.68;7.43;;;13.60;99.90;;;;;;5091949;28;20046;-39
2022/04/13 05:25:33;;;;;;;20.80;8.57;;;13.60;99.90;;;;;;5092910;28;20492;-37
2022/04/13 05:27:59;;;;;;;15.77;8.05;;;13.60;99.90;;;;;;5092645;28;20028;-38
2022/04/13 05:30:24;;;;;;;19.08;8.90;;;13.60;99.90;;;;;;5092105;28;20043;-39
2022/04/13 05:32:57;;;;;;;20.33;9.05;;;13.60;99.90;;;;;;5091980;28;20024;-38
2022/04/13 05:35:25;;;;;;;17.92;8.20;;;13.60;99.90;;;;;;5092006;28;20016;-37
2022/04/13 05:37:51;;;;;;;21.25;9.07;;;13.70;99.90;;;;;;5092576;28;20156;-38
2022/04/13 05:40:17;;;;;;;19.85;8.07;;;13.70;99.90;;;;;;5093347;28;20046;-39
2022/04/13 05:42:43;;;;;;;24.95;9.55;;;13.70;99.90;;;;;;5093568;28;20024;-37
2022/04/13 05:45:09;;;;;;;20.27;9.00;;;13.80;99.90;;;;;;5092777;28;20012;-37
2022/04/13 05:47:35;;;;;;;19.63;9.48;;;13.80;99.90;;;;;;5090466;28;20161;-37
2022/04/13 05:50:02;;;;;;;22.60;9.10;;;13.80;99.90;;;;;;5080020;28;20028;-36
2022/04/13 05:52:28;;;;;;;15.47;7.93;;;13.90;99.90;;;;;;5092598;28;20433;-39
2022/04/13 05:54:53;;;;;;;19.63;7.47;;;14.00;99.90;;;;;;5091971;28;20024;-39
2022/04/13 05:57:19;;;;;;;16.50;8.07;;;14.10;99.90;;;;;;5092064;28;20024;-36
2022/04/13 05:59:45;;;;;;;10.98;7.38;;;14.20;99.90;;;;;;5090314;28;20071;-38
2022/04/13 06:02:10;;;;;;;15.45;7.97;;;14.30;99.90;;;;;;5095153;28;20024;-39
2022/04/13 06:04:36;;;;;;;14.50;7.70;;;14.50;99.90;;;;;;5096187;28;20094;-39
2022/04/13 06:07:01;;;;;;;13.45;7.90;;;14.60;99.90;;;;;;5097335;28;20024;-40
2022/04/13 06:09:27;;;;;;;29.45;8.68;;;14.70;99.90;;;;;;5097312;28;20099;-38
2022/04/13 06:11:53;;;;;;;19.00;8.95;;;14.80;99.90;;;;;;5094257;28;20059;-43
2022/04/13 06:14:19;;;;;;;12.88;7.78;;;14.90;99.90;;;;;;5096047;28;20020;-45
2022/04/13 06:16:45;;;;;;;13.88;7.30;;;14.90;99.90;;;;;;5088452;28;20105;-38
2022/04/13 06:19:13;;;;;;;13.80;7.78;;;15.00;99.90;;;;;;5091749;28;20028;-39
2022/04/13 06:21:39;;;;;;;16.10;7.93;;;15.20;99.90;;;;;;5091690;28;20016;-39
2022/04/13 06:24:05;;;;;;;13.85;7.60;;;15.20;99.90;;;;;;5090836;28;20506;-38
2022/04/13 06:26:31;;;;;;;13.35;6.25;;;15.30;99.90;;;;;;5094897;28;20433;-38
2022/04/13 06:28:56;;;;;;;10.85;6.82;;;15.30;99.90;;;;;;5096928;28;20027;-39
2022/04/13 06:31:22;;;;;;;10.95;6.28;;;15.40;99.90;;;;;;5096904;28;20020;-39
2022/04/13 06:33:49;;;;;;;19.08;7.32;;;15.50;99.90;;;;;;5096049;28;20384;-40
2022/04/13 06:36:17;;;;;;;27.88;7.00;;;15.50;99.90;;;;;;5096086;28;20020;-39
2022/04/13 06:38:43;;;;;;;15.95;7.00;;;15.50;99.90;;;;;;5095930;28;20499;-41
2022/04/13 06:41:10;;;;;;;13.05;6.28;;;15.40;99.90;;;;;;5094140;28;20040;-38
2022/04/13 06:43:35;;;;;;;16.75;7.90;;;15.40;99.90;;;;;;5095256;28;20379;-38
2022/04/13 06:46:01;;;;;;;17.33;8.40;;;15.40;99.90;;;;;;5096470;28;20024;-39
2022/04/13 06:48:30;;;;;;;13.25;6.63;;;15.50;99.90;;;;;;5095573;28;20044;-37
2022/04/13 06:50:56;;;;;;;12.77;6.40;;;15.60;99.90;;;;;;5095515;28;20030;-37
2022/04/13 06:53:21;;;;;;;23.63;6.88;;;15.70;99.90;;;;;;5095469;28;20020;-40
2022/04/13 06:55:48;;;;;;;13.18;6.57;;;15.80;99.90;;;;;;5093252;28;20022;-40
2022/04/13 06:58:14;;;;;;;11.23;5.68;;;15.90;99.90;;;;;;5094717;28;20127;-40
2022/04/13 07:00:40;;;;;;;17.63;6.25;;;15.90;99.90;;;;;;5094934;28;20088;-39
2022/04/13 07:03:06;;;;;;;10.70;6.60;;;16.00;99.90;;;;;;5096036;28;20095;-38
2022/04/13 07:05:32;;;;;;;12.57;5.95;;;15.90;99.90;;;;;;5096080;28;20024;-38
2022/04/13 07:07:58;;;;;;;16.55;6.38;;;15.80;99.90;;;;;;5095451;28;20020;-39
2022/04/13 07:10:27;;;;;;;14.98;6.22;;;15.80;99.90;;;;;;5096097;28;20498;-39
2022/04/13 07:12:53;;;;;;;15.00;6.00;;;15.70;99.90;;;;;;5095229;28;20388;-38
2022/04/13 07:15:18;;;;;;;11.05;5.28;;;15.60;99.90;;;;;;5094707;28;20496;-38
2022/04/13 07:17:45;;;;;;;16.95;6.50;;;15.60;99.90;;;;;;5094977;28;20016;-39
2022/04/13 07:20:11;;;;;;;10.57;6.18;;;15.80;99.90;;;;;;5085313;28;20024;-39
2022/04/13 07:22:44;;;;;;;9.23;4.97;;;16.00;99.90;;;;;;5088097;28;20036;-53
2022/04/13 07:25:11;;;;;;;8.38;4.15;;;16.00;99.90;;;;;;5090431;28;20547;-43
2022/04/13 07:27:36;;;;;;;7.72;4.13;;;16.00;99.90;;;;;;5094627;28;20109;-39
2022/04/13 07:30:02;;;;;;;10.10;4.00;;;15.90;99.90;;;;;;5094311;28;20066;-37
2022/04/13 07:32:28;;;;;;;9.85;3.50;;;15.80;99.90;;;;;;5096030;28;20020;-37
2022/04/13 07:34:53;;;;;;;10.68;4.50;;;15.90;99.90;;;;;;5099261;28;20510;-37
2022/04/13 07:37:19;;;;;;;13.73;4.25;;;16.00;99.90;;;;;;5095583;28;20035;-38
2022/04/13 07:39:45;;;;;;;5.93;3.83;;;16.00;99.90;;;;;;5103479;28;20040;-38
2022/04/13 07:42:10;;;;;;;6.85;4.20;;;16.00;99.90;;;;;;5095499;28;20102;-38
2022/04/13 07:44:36;;;;;;;10.00;4.72;;;16.10;99.90;;;;;;5086952;28;20504;-36
2022/04/13 07:47:01;;;;;;;6.80;4.07;;;16.10;99.90;;;;;;5095001;28;20107;-39
2022/04/13 07:49:27;;;;;;;12.93;4.60;;;16.20;99.90;;;;;;5095436;28;20024;-39
2022/04/13 07:51:52;;;;;;;13.25;4.65;;;16.20;99.90;;;;;;5095303;28;20111;-39
2022/04/13 07:54:18;;;;;;;10.25;5.05;;;16.40;99.90;;;;;;5092395;28;20472;-39
2022/04/13 07:56:44;;;;;;;9.93;4.22;;;16.60;99.90;;;;;;5094543;28;20020;-37
2022/04/13 07:59:09;;;;;;;9.13;4.13;;;16.60;99.90;;;;;;5094192;28;20497;-38
2022/04/13 08:01:35;;;;;;;10.40;5.03;;;16.60;99.90;;;;;;5087910;28;20013;-39
2022/04/13 08:04:00;;;;;;;11.90;5.35;;;16.70;99.90;;;;;;5091700;28;20028;-39
2022/04/13 08:06:26;;;;;;;9.15;5.20;;;16.70;99.90;;;;;;5093505;28;20077;-46
2022/04/13 08:08:52;;;;;;;14.50;5.07;;;16.80;99.90;;;;;;5093703;28;20476;-37
2022/04/13 08:11:18;;;;;;;10.35;4.60;;;16.90;99.90;;;;;;5094931;28;20110;-38
2022/04/13 08:13:43;;;;;;;7.82;4.30;;;17.00;99.90;;;;;;5094444;28;20502;-35
2022/04/13 08:16:09;;;;;;;15.38;4.50;;;17.20;99.90;;;;;;5106079;28;20178;-39
2022/04/13 08:18:35;;;;;;;10.95;4.50;;;17.30;99.90;;;;;;5097323;28;20016;-38
2022/04/13 08:21:02;;;;;;;14.82;5.55;;;17.30;99.90;;;;;;5094759;28;20032;-37
2022/04/13 08:23:28;;;;;;;16.60;5.22;;;17.20;99.90;;;;;;5088932;28;20074;-38
2022/04/13 08:25:53;;;;;;;12.98;4.88;;;17.10;99.90;;;;;;5094961;28;20079;-38
2022/04/13 08:28:19;;;;;;;10.75;4.15;;;17.20;99.90;;;;;;5093635;28;20477;-43
2022/04/13 08:30:45;;;;;;;9.80;4.78;;;17.10;99.90;;;;;;5090628;28;20058;-36
2022/04/13 08:33:10;;;;;;;13.60;5.18;;;17.00;99.90;;;;;;5090055;28;20066;-38
2022/04/13 08:35:36;;;;;;;10.35;4.28;;;16.80;99.90;;;;;;5095892;28;20036;-37
2022/04/13 08:38:01;;;;;;;9.77;3.80;;;16.80;99.90;;;;;;5080494;28;20107;-37
2022/04/13 08:40:30;;;;;;;9.32;3.97;;;16.50;99.90;;;;;;5089206;28;20161;-35
2022/04/13 08:43:20;;;;;;;6.43;3.88;;;16.30;99.90;;;;;;5093748;28;20016;-39
2022/04/13 08:45:54;;;;;;;7.10;3.40;;;16.20;99.90;;;;;;5088906;28;20540;-36
2022/04/13 08:48:24;;;;;;;7.95;4.85;;;16.10;99.90;;;;;;5091923;28;20082;-38
2022/04/13 08:51:00;;;;;;;7.63;3.35;;;16.10;99.90;;;;;;5090921;28;21808;-37
2022/04/13 08:53:30;;;;;;;7.00;3.38;;;16.10;99.90;;;;;;5086491;28;20050;-37
2022/04/13 08:55:58;;;;;;;15.90;3.78;;;16.20;99.90;;;;;;5091405;28;20094;-38
2022/04/13 08:58:37;;;;;;;5.55;2.78;;;16.30;99.90;;;;;;5087807;28;20050;-37
2022/04/13 09:01:16;;;;;;;10.73;2.05;;;16.40;99.90;;;;;;5091947;28;20123;-38
2022/04/13 09:03:48;;;;;;;14.30;2.88;;;16.40;99.90;;;;;;5093918;28;20069;-38
2022/04/13 09:06:15;;;;;;;8.35;2.47;;;16.50;99.90;;;;;;5091188;28;20082;-37
2022/04/13 09:08:49;;;;;;;3.33;2.37;;;16.50;99.90;;;;;;5091772;28;20099;-38
2022/04/13 09:11:16;;;;;;;9.38;3.60;;;16.70;99.90;;;;;;5091525;28;20063;-38
2022/04/13 09:13:44;;;;;;;10.20;4.00;;;16.80;99.90;;;;;;5092753;28;20496;-39
2022/04/13 09:16:09;;;;;;;10.32;3.72;;;16.90;99.90;;;;;;5081459;28;20032;-52
2022/04/13 09:18:35;;;;;;;7.43;3.28;;;17.00;99.90;;;;;;5077377;28;20027;-38
2022/04/13 09:21:01;;;;;;;6.07;3.40;;;17.10;99.90;;;;;;5091215;28;20039;-37
2022/04/13 09:23:29;;;;;;;12.35;3.58;;;17.30;99.90;;;;;;5089833;28;20040;-37
2022/04/13 09:25:56;;;;;;;6.60;3.22;;;17.40;99.90;;;;;;5088864;28;20361;-37
2022/04/13 09:28:22;;;;;;;11.52;3.13;;;17.40;99.90;;;;;;5072498;28;20040;-39
2022/04/13 09:30:48;;;;;;;11.43;3.90;;;17.50;99.90;;;;;;5076175;28;20024;-40
2022/04/13 09:33:14;;;;;;;10.00;3.83;;;17.50;99.90;;;;;;5108045;28;20023;-38
2022/04/13 09:35:39;;;;;;;5.07;2.95;;;17.50;99.90;;;;;;5092405;28;20083;-38
2022/04/13 09:38:07;;;;;;;8.73;4.15;;;17.40;99.90;;;;;;5090867;28;20036;-38
2022/04/13 09:40:32;;;;;;;9.70;3.13;;;17.30;99.90;;;;;;5095564;28;20020;-32
2022/04/13 09:43:10;;;;;;;8.10;3.20;;;17.20;99.90;;;;;;5087744;28;20502;-38
2022/04/13 09:45:42;;;;;;;4.50;3.45;;;17.00;99.90;;;;;;5092299;28;20017;-36
2022/04/13 09:48:18;;;;;;;7.90;3.58;;;17.00;99.90;;;;;;5090731;28;20027;-40
2022/04/13 09:50:45;;;;;;;12.38;3.80;;;16.90;99.90;;;;;;5090316;28;20736;-38
2022/04/13 09:53:13;;;;;;;8.65;3.28;;;16.90;99.90;;;;;;5077859;28;20029;-39
2022/04/13 09:55:45;;;;;;;6.55;3.53;;;16.90;99.90;;;;;;5091130;28;20044;-36
2022/04/13 09:58:15;;;;;;;14.07;4.63;;;16.90;99.90;;;;;;5074399;28;20036;-32
2022/04/13 10:00:42;;;;;;;13.98;4.03;;;17.00;99.90;;;;;;5085913;28;20472;-35
2022/04/13 10:03:12;;;;;;;9.02;4.03;;;16.90;99.90;;;;;;5085907;28;20060;-40
2022/04/13 10:05:41;;;;;;;6.70;3.28;;;17.00;99.90;;;;;;5085416;28;20128;-39
2022/04/13 10:08:11;;;;;;;12.73;4.30;;;17.10;99.90;;;;;;5082948;28;20027;-38
2022/04/13 10:10:45;;;;;;;15.05;4.25;;;17.10;99.90;;;;;;5087585;28;20028;-41
2022/04/13 10:13:13;;;;;;;10.10;3.88;;;17.20;99.90;;;;;;5084190;28;20033;-39
2022/04/13 10:15:39;;;;;;;9.80;4.68;;;17.10;99.90;;;;;;5087340;28;20377;-41
2022/04/13 10:18:05;;;;;;;8.88;3.75;;;17.10;99.90;;;;;;5087646;28;20032;-38
2022/04/13 10:20:44;;;;;;;11.40;4.03;;;17.10;99.90;;;;;;5090351;28;20070;-38
2022/04/13 10:23:10;;;;;;;10.35;3.88;;;17.10;99.90;;;;;;5088185;28;20043;-36
2022/04/13 10:25:36;;;;;;;9.30;3.70;;;16.90;99.90;;;;;;5090658;28;20148;-38
2022/04/13 10:28:02;;;;;;;11.15;3.78;;;16.80;99.90;;;;;;5091774;28;20431;-39
2022/04/13 10:30:32;;;;;;;15.38;4.30;;;16.70;99.90;;;;;;5087615;28;20361;-38
2022/04/13 10:33:01;;;;;;;6.32;3.67;;;16.80;99.90;;;;;;5087397;28;20032;-38
2022/04/13 10:35:29;;;;;;;7.93;3.75;;;16.80;99.90;;;;;;5087533;28;20028;-39
2022/04/13 10:37:55;;;;;;;;;;;16.90;99.90;;;;;;5086717;28;20472;-39
2022/04/13 10:40:23;;;;;;;3.97;2.75;;;16.90;99.90;;;;;;5083755;28;19920;-38
2022/04/13 10:42:51;;;;;;;10.98;4.07;;;17.00;99.90;;;;;;5086233;28;20488;-38
2022/04/13 10:45:18;;;;;;;11.85;4.95;;;17.10;99.90;;;;;;5089681;28;20468;-38
2022/04/13 10:47:54;;;;;;;9.63;4.28;;;17.20;99.90;;;;;;5082918;28;20434;-39
2022/04/13 10:50:31;;;;;;;9.37;4.40;;;17.20;99.90;;;;;;5083894;28;20082;-38
2022/04/13 10:53:05;;;;;;;11.68;5.28;;;17.30;99.90;;;;;;5091630;28;20036;-40
2022/04/13 10:55:33;;;;;;;15.88;5.75;;;17.40;99.90;;;;;;5086224;28;20484;-38
2022/04/13 10:58:17;;;;;;;12.57;5.20;;;17.40;99.90;;;;;;5086266;28;20594;-34
2022/04/13 11:00:46;;;;;;;12.38;4.82;;;17.40;99.90;;;;;;5089575;28;20032;-38
2022/04/13 11:03:12;;;;;;;12.68;5.50;;;17.40;99.90;;;;;;5089060;28;20024;-38
2022/04/13 11:05:40;;;;;;;16.70;5.55;;;17.30;99.90;;;;;;5087349;28;20695;-37
2022/04/13 11:08:32;;;;;;;12.73;6.30;;;17.10;99.90;;;;;;5087448;28;20031;-44
2022/04/13 11:10:58;;;;;;;9.32;6.13;;;17.00;99.90;;;;;;5088463;28;20536;-35
2022/04/13 11:13:30;;;;;;;15.00;5.95;;;16.90;99.90;;;;;;5087867;28;20356;-38
2022/04/13 11:15:56;;;;;;;8.65;4.50;;;16.80;99.90;;;;;;5086499;28;20524;-33
2022/04/13 11:18:21;;;;;;;6.53;4.70;;;16.80;99.90;;;;;;5088562;28;20127;-35
2022/04/13 11:21:02;;;;;;;10.45;4.97;;;16.80;99.90;;;;;;5089382;28;20031;-39
2022/04/13 11:23:48;;;;;;;13.05;5.35;;;16.70;99.90;;;;;;5089182;28;20036;-38
2022/04/13 11:26:14;;;;;;;12.85;5.35;;;16.60;99.90;;;;;;5089735;28;20072;-39
2022/04/13 11:28:40;;;;;;;8.15;4.57;;;16.70;99.90;;;;;;5087145;28;21214;-39
2022/04/13 11:31:05;;;;;;;11.98;5.88;;;16.80;99.90;;;;;;5088457;28;20462;-40
2022/04/13 11:33:51;;;;;;;14.48;6.43;;;16.80;99.90;;;;;;5085468;28;20103;-38
2022/04/13 11:36:19;;;;;;;22.98;5.40;;;16.80;99.90;;;;;;5084962;28;20020;-38
2022/04/13 11:38:48;;;;;;;;;;;16.80;99.90;;;;;;5083346;28;20547;-36
2022/04/13 11:41:14;;;;;;;12.93;5.13;;;16.70;99.90;;;;;;5087924;28;20613;-39
2022/04/13 11:43:40;;;;;;;11.63;5.25;;;16.70;99.90;;;;;;5088765;28;20052;-38
2022/04/13 11:46:05;;;;;;;14.70;4.60;;;16.60;99.90;;;;;;5088918;28;20395;-37
2022/04/13 11:48:35;;;;;;;12.38;4.95;;;16.60;99.90;;;;;;5089954;28;20039;-37
2022/04/13 11:51:30;;;;;;;9.77;4.78;;;16.70;99.90;;;;;;5090011;28;20118;-39
2022/04/13 11:54:08;;;;;;;14.23;4.50;;;16.70;99.90;;;;;;5086269;28;20504;-40
2022/04/13 11:56:35;;;;;;;11.70;4.13;;;16.80;99.90;;;;;;5088432;28;20102;-39
2022/04/13 11:59:01;;;;;;;10.10;4.30;;;16.90;99.90;;;;;;5091188;28;20036;-35
2022/04/13 12:01:27;;;;;;;12.93;4.22;;;16.90;99.90;;;;;;5088474;28;20032;-37
2022/04/13 12:03:55;;;;;;;12.95;4.82;;;16.90;99.90;;;;;;5086636;28;20020;-49
2022/04/13 12:06:24;;;;;;;11.75;4.65;;;17.00;99.90;;;;;;5089266;28;20024;-39
2022/04/13 12:08:55;;;;;;;11.85;4.68;;;16.90;99.90;;;;;;5086953;28;20486;-49
2022/04/13 12:11:46;;;;;;;18.83;5.82;;;17.00;99.90;;;;;;5088174;28;20468;-41
2022/04/13 12:14:26;;;;;;;10.95;5.25;;;17.10;99.90;;;;;;5087959;28;20496;-39
2022/04/13 12:16:55;;;;;;;9.48;5.93;;;17.20;99.90;;;;;;5085451;28;20032;-34
2022/04/13 12:19:21;;;;;;;18.30;5.80;;;17.20;99.90;;;;;;5086642;28;20537;-39
2022/04/13 12:21:46;;;;;;;10.18;5.30;;;17.20;99.90;;;;;;5086833;28;20016;-37
2022/04/13 12:24:13;;;;;;;11.93;5.03;;;17.20;99.90;;;;;;5087200;28;20052;-39
2022/04/13 12:26:41;;;;;;;11.13;5.18;;;17.20;99.90;;;;;;5087260;28;20156;-40
2022/04/13 12:29:22;;;;;;;9.75;4.13;;;17.30;99.90;;;;;;5085866;28;20468;-37
2022/04/13 12:31:51;;;;;;;13.60;4.85;;;17.50;99.90;;;;;;5087801;28;20357;-41
2022/04/13 12:34:18;;;;;;;15.93;5.25;;;17.80;99.90;;;;;;5087064;28;20506;-46
2022/04/13 12:37:02;;;;;;;8.35;5.10;;;18.00;99.90;;;;;;5090296;28;20488;-37
2022/04/13 12:39:32;;;;;;;9.23;4.13;;;18.20;99.90;;;;;;5086140;28;20396;-40
2022/04/13 12:41:59;;;;;;;8.70;4.68;;;18.30;99.90;;;;;;5086098;28;20020;-37